createdAt,value
2018-12-24T00:00:23.188Z,6.81
2018-12-24T00:01:23.105Z,6.75
2018-12-24T00:02:23.119Z,6.78
2018-12-24T00:03:23.091Z,6.82
2018-12-24T00:04:23.082Z,6.75
2018-12-24T00:05:23.065Z,6.83
2018-12-24T00:06:23.094Z,6.75
2018-12-24T00:07:23.337Z,6.82
2018-12-24T00:08:23.031Z,6.81
2018-12-24T00:09:23.029Z,6.73
2018-12-24T00:10:23.034Z,6.82
2018-12-24T00:11:22.997Z,6.75
2018-12-24T00:12:22.991Z,6.75
2018-12-24T00:13:23.021Z,6.74
2018-12-24T00:14:22.984Z,6.74
2018-12-24T00:15:22.956Z,6.74
2018-12-24T00:16:22.944Z,6.78
2018-12-24T00:17:23.010Z,6.73
2018-12-24T00:18:22.926Z,6.73
2018-12-24T00:19:22.911Z,6.74
2018-12-24T00:20:22.955Z,6.78
2018-12-24T00:21:22.945Z,6.78
2018-12-24T00:22:22.878Z,6.70
2018-12-24T00:23:22.868Z,6.74
2018-12-24T00:24:22.900Z,6.64
2018-12-24T00:25:22.877Z,6.75
2018-12-24T00:26:22.839Z,6.63
2018-12-24T00:27:22.826Z,6.64
2018-12-24T00:28:22.816Z,6.61
2018-12-24T00:29:22.804Z,6.63
2018-12-24T00:30:22.925Z,6.49
2018-12-24T00:31:22.787Z,6.47
2018-12-24T00:32:22.818Z,6.47
2018-12-24T00:33:22.772Z,6.56
2018-12-24T00:34:22.749Z,6.55
2018-12-24T00:35:22.740Z,6.63
2018-12-24T00:36:22.742Z,6.49
2018-12-24T00:37:22.715Z,6.53
2018-12-24T00:38:22.801Z,6.57
2018-12-24T00:39:22.737Z,6.45
2018-12-24T00:40:22.688Z,6.47
2018-12-24T00:41:22.681Z,6.47
2018-12-24T00:42:22.673Z,6.37
2018-12-24T00:43:22.667Z,6.42
2018-12-24T00:44:22.698Z,6.45
2018-12-24T00:45:22.629Z,6.42
2018-12-24T00:46:22.660Z,6.40
2018-12-24T00:47:22.613Z,6.43
2018-12-24T00:48:22.624Z,6.42
2018-12-24T00:49:22.588Z,6.35
2018-12-24T00:50:22.577Z,6.31
2018-12-24T00:51:22.586Z,6.31
2018-12-24T00:52:22.613Z,6.31
2018-12-24T00:53:22.548Z,6.27
2018-12-24T00:54:22.538Z,6.30
2018-12-24T00:55:22.525Z,6.32
2018-12-24T00:56:22.523Z,6.24
2018-12-24T00:57:22.513Z,6.21
2018-12-24T00:58:22.540Z,6.24
2018-12-24T00:59:22.478Z,6.19
2018-12-24T01:00:22.520Z,6.21
2018-12-24T01:01:22.505Z,6.25
2018-12-24T01:02:22.455Z,6.27
2018-12-24T01:03:22.436Z,6.12
2018-12-24T01:04:22.428Z,6.24
2018-12-24T01:05:22.419Z,6.19
2018-12-24T01:06:22.453Z,6.11
2018-12-24T01:07:22.391Z,6.13
2018-12-24T01:08:22.383Z,6.18
2018-12-24T01:09:22.399Z,6.19
2018-12-24T01:10:22.365Z,6.21
2018-12-24T01:11:22.353Z,6.16
2018-12-24T01:12:24.645Z,6.13
2018-12-24T01:13:22.330Z,6.09
2018-12-24T01:14:22.321Z,6.13
2018-12-24T01:15:22.307Z,6.15
2018-12-24T01:16:22.328Z,6.13
2018-12-24T01:17:22.284Z,6.08
2018-12-24T01:18:22.371Z,6.12
2018-12-24T01:19:22.261Z,6.13
2018-12-24T01:20:22.255Z,6.11
2018-12-24T01:21:22.278Z,6.06
2018-12-24T01:22:22.247Z,6.13
2018-12-24T01:23:22.225Z,6.15
2018-12-24T01:24:22.265Z,6.09
2018-12-24T01:25:22.200Z,6.13
2018-12-24T01:26:22.186Z,6.09
2018-12-24T01:27:22.186Z,6.13
2018-12-24T01:28:22.167Z,6.08
2018-12-24T01:29:22.162Z,6.12
2018-12-24T01:30:22.211Z,6.11
2018-12-24T01:31:22.134Z,6.09
2018-12-24T01:32:22.188Z,6.09
2018-12-24T01:33:22.118Z,5.97
2018-12-24T01:34:22.144Z,6.03
2018-12-24T01:35:22.093Z,6.11
2018-12-24T01:36:22.084Z,6.12
2018-12-24T01:37:22.085Z,6.08
2018-12-24T01:38:22.075Z,6.06
2018-12-24T01:39:22.093Z,5.97
2018-12-24T01:40:22.038Z,6.05
2018-12-24T01:41:22.061Z,5.98
2018-12-24T01:42:22.015Z,5.93
2018-12-24T01:43:22.004Z,5.93
2018-12-24T01:44:22.096Z,5.94
2018-12-24T01:45:21.987Z,5.95
2018-12-24T01:46:21.975Z,5.85
2018-12-24T01:47:21.962Z,5.87
2018-12-24T01:48:21.951Z,5.77
2018-12-24T01:49:21.988Z,5.82
2018-12-24T01:50:21.936Z,5.84
2018-12-24T01:51:21.969Z,5.84
2018-12-24T01:52:21.927Z,5.84
2018-12-24T01:53:21.896Z,5.84
2018-12-24T01:54:21.891Z,5.84
2018-12-24T01:55:21.878Z,5.82
2018-12-24T01:56:21.862Z,5.75
2018-12-24T01:57:21.895Z,5.79
2018-12-24T01:58:21.850Z,5.73
2018-12-24T01:59:21.875Z,5.70
2018-12-24T02:00:21.823Z,5.80
2018-12-24T02:01:21.813Z,5.75
2018-12-24T02:02:21.804Z,5.77
2018-12-24T02:03:21.860Z,5.77
2018-12-24T02:04:21.783Z,5.82
2018-12-24T02:05:21.784Z,5.75
2018-12-24T02:06:21.765Z,5.76
2018-12-24T02:07:21.760Z,5.73
2018-12-24T02:08:21.741Z,5.73
2018-12-24T02:09:21.778Z,5.77
2018-12-24T02:10:21.713Z,5.72
2018-12-24T02:11:21.707Z,5.77
2018-12-24T02:12:21.714Z,5.75
2018-12-24T02:13:21.683Z,5.80
2018-12-24T02:14:21.671Z,5.70
2018-12-24T02:15:21.705Z,5.73
2018-12-24T02:16:21.676Z,5.87
2018-12-24T02:17:21.646Z,5.79
2018-12-24T02:18:21.629Z,5.80
2018-12-24T02:19:21.621Z,5.73
2018-12-24T02:20:21.611Z,5.72
2018-12-24T02:21:21.653Z,5.75
2018-12-24T02:22:21.647Z,5.80
2018-12-24T02:23:21.575Z,5.85
2018-12-24T02:24:21.581Z,5.77
2018-12-24T02:25:21.577Z,5.75
2018-12-24T02:26:21.543Z,5.72
2018-12-24T02:27:21.529Z,5.77
2018-12-24T02:28:21.572Z,5.75
2018-12-24T02:29:21.550Z,5.87
2018-12-24T02:30:21.506Z,5.80
2018-12-24T02:31:21.489Z,5.82
2018-12-24T02:32:21.548Z,5.82
2018-12-24T02:33:21.473Z,5.82
2018-12-24T02:34:21.464Z,5.80
2018-12-24T02:35:21.450Z,5.77
2018-12-24T02:36:21.434Z,5.80
2018-12-24T02:37:21.430Z,5.73
2018-12-24T02:38:21.464Z,5.75
2018-12-24T02:39:21.405Z,5.79
2018-12-24T02:40:21.400Z,5.80
2018-12-24T02:41:21.379Z,5.85
2018-12-24T02:42:21.419Z,5.85
2018-12-24T02:43:21.386Z,5.84
2018-12-24T02:44:21.410Z,5.87
2018-12-24T02:45:21.336Z,5.79
2018-12-24T02:46:21.366Z,5.84
2018-12-24T02:47:21.328Z,5.82
2018-12-24T02:48:21.308Z,5.77
2018-12-24T02:49:21.342Z,5.84
2018-12-24T02:50:21.291Z,5.84
2018-12-24T02:51:21.315Z,5.73
2018-12-24T02:52:21.274Z,5.70
2018-12-24T02:53:21.308Z,5.84
2018-12-24T02:54:21.320Z,5.79
2018-12-24T02:55:21.237Z,5.77
2018-12-24T02:56:21.236Z,5.73
2018-12-24T02:57:21.222Z,5.82
2018-12-24T02:58:21.211Z,5.73
2018-12-24T02:59:21.464Z,5.77
2018-12-24T03:00:21.182Z,5.76
2018-12-24T03:01:21.175Z,5.84
2018-12-24T03:02:21.160Z,5.75
2018-12-24T03:03:21.145Z,5.70
2018-12-24T03:04:21.152Z,5.70
2018-12-24T03:05:21.181Z,5.84
2018-12-24T03:06:21.115Z,5.82
2018-12-24T03:07:21.101Z,5.75
2018-12-24T03:08:21.150Z,5.70
2018-12-24T03:09:21.100Z,5.70
2018-12-24T03:10:21.111Z,5.84
2018-12-24T03:11:21.061Z,5.79
2018-12-24T03:12:21.063Z,5.79
2018-12-24T03:13:21.035Z,5.82
2018-12-24T03:14:21.050Z,5.77
2018-12-24T03:15:21.023Z,5.77
2018-12-24T03:16:21.048Z,5.79
2018-12-24T03:17:21.048Z,5.70
2018-12-24T03:18:20.983Z,5.87
2018-12-24T03:19:21.026Z,5.84
2018-12-24T03:20:20.971Z,5.82
2018-12-24T03:21:20.994Z,5.77
2018-12-24T03:22:20.988Z,5.84
2018-12-24T03:23:20.955Z,5.84
2018-12-24T03:24:20.919Z,5.87
2018-12-24T03:25:20.913Z,5.82
2018-12-24T03:26:20.902Z,5.73
2018-12-24T03:27:20.889Z,5.79
2018-12-24T03:28:20.938Z,5.84
2018-12-24T03:29:20.864Z,5.79
2018-12-24T03:30:20.852Z,5.77
2018-12-24T03:31:20.895Z,5.82
2018-12-24T03:32:20.866Z,5.85
2018-12-24T03:33:20.837Z,5.84
2018-12-24T03:34:20.811Z,5.75
2018-12-24T03:35:20.798Z,5.76
2018-12-24T03:36:20.788Z,5.91
2018-12-24T03:37:20.822Z,5.80
2018-12-24T03:38:20.785Z,5.80
2018-12-24T03:39:20.761Z,5.88
2018-12-24T03:40:20.745Z,5.80
2018-12-24T03:41:20.737Z,5.90
2018-12-24T03:42:20.723Z,5.90
2018-12-24T03:43:20.757Z,5.88
2018-12-24T03:44:20.737Z,5.88
2018-12-24T03:45:20.698Z,5.95
2018-12-24T03:46:20.679Z,5.94
2018-12-24T03:47:20.670Z,5.82
2018-12-24T03:48:20.707Z,5.93
2018-12-24T03:49:20.647Z,5.87
2018-12-24T03:50:20.649Z,5.94
2018-12-24T03:51:20.628Z,5.91
2018-12-24T03:52:20.616Z,5.93
2018-12-24T03:53:20.608Z,5.97
2018-12-24T03:54:20.643Z,5.98
2018-12-24T03:55:20.583Z,5.97
2018-12-24T03:56:20.578Z,6.03
2018-12-24T03:57:20.567Z,6.08
2018-12-24T03:58:20.564Z,5.95
2018-12-24T03:59:20.581Z,6.02
2018-12-24T04:00:20.604Z,6.03
2018-12-24T04:01:20.520Z,6.02
2018-12-24T04:02:20.509Z,5.97
2018-12-24T04:03:20.499Z,6.00
2018-12-24T04:04:20.489Z,5.98
2018-12-24T04:05:20.547Z,5.98
2018-12-24T04:06:20.462Z,6.02
2018-12-24T04:07:20.455Z,5.97
2018-12-24T04:08:20.444Z,5.94
2018-12-24T04:09:20.440Z,5.97
2018-12-24T04:10:20.425Z,6.08
2018-12-24T04:11:20.481Z,6.12
2018-12-24T04:12:20.401Z,6.06
2018-12-24T04:13:22.578Z,6.08
2018-12-24T04:14:20.426Z,6.09
2018-12-24T04:15:20.377Z,6.06
2018-12-24T04:16:20.358Z,6.06
2018-12-24T04:17:20.367Z,6.11
2018-12-24T04:18:20.402Z,6.05
2018-12-24T04:19:20.327Z,5.97
2018-12-24T04:20:20.327Z,5.94
2018-12-24T04:21:22.703Z,6.05
2018-12-24T04:22:20.294Z,6.08
2018-12-24T04:23:20.292Z,6.08
2018-12-24T04:24:20.317Z,6.08
2018-12-24T04:25:20.267Z,5.97
2018-12-24T04:26:20.250Z,6.02
2018-12-24T04:27:20.241Z,6.08
2018-12-24T04:28:20.235Z,6.11
2018-12-24T04:29:20.219Z,6.00
2018-12-24T04:30:20.249Z,6.06
2018-12-24T04:31:20.194Z,6.12
2018-12-24T04:32:20.184Z,6.02
2018-12-24T04:33:20.183Z,6.05
2018-12-24T04:34:20.176Z,6.06
2018-12-24T04:35:20.152Z,6.08
2018-12-24T04:36:20.186Z,6.09
2018-12-24T04:37:20.131Z,6.15
2018-12-24T04:38:20.120Z,6.12
2018-12-24T04:39:20.112Z,6.12
2018-12-24T04:40:20.103Z,6.13
2018-12-24T04:41:20.088Z,6.13
2018-12-24T04:42:20.124Z,6.12
2018-12-24T04:43:20.067Z,6.13
2018-12-24T04:44:20.102Z,6.16
2018-12-24T04:45:20.046Z,6.11
2018-12-24T04:46:20.051Z,6.13
2018-12-24T04:47:20.066Z,6.21
2018-12-24T04:48:20.012Z,6.16
2018-12-24T04:49:20.002Z,6.19
2018-12-24T04:50:19.992Z,6.19
2018-12-24T04:51:19.979Z,6.15
2018-12-24T04:52:19.978Z,6.27
2018-12-24T04:53:20.007Z,6.24
2018-12-24T04:54:19.948Z,6.25
2018-12-24T04:55:19.937Z,6.18
2018-12-24T04:56:19.926Z,6.21
2018-12-24T04:57:19.916Z,6.13
2018-12-24T04:58:19.965Z,6.21
2018-12-24T04:59:19.894Z,6.18
2018-12-24T05:00:19.918Z,6.21
2018-12-24T05:01:19.912Z,6.28
2018-12-24T05:02:19.908Z,6.16
2018-12-24T05:03:19.867Z,6.19
2018-12-24T05:04:19.842Z,6.24
2018-12-24T05:05:19.851Z,6.16
2018-12-24T05:06:19.854Z,6.24
2018-12-24T05:07:19.808Z,6.30
2018-12-24T05:08:19.849Z,6.19
2018-12-24T05:09:19.788Z,6.18
2018-12-24T05:10:19.782Z,6.25
2018-12-24T05:11:19.769Z,6.25
2018-12-24T05:12:19.818Z,6.24
2018-12-24T05:13:19.758Z,6.25
2018-12-24T05:14:19.751Z,6.12
2018-12-24T05:15:19.728Z,6.18
2018-12-24T05:16:19.732Z,6.16
2018-12-24T05:17:19.725Z,6.27
2018-12-24T05:18:19.732Z,6.15
2018-12-24T05:19:19.679Z,6.13
2018-12-24T05:20:19.670Z,6.24
2018-12-24T05:21:19.659Z,6.27
2018-12-24T05:22:19.646Z,6.18
2018-12-24T05:23:19.658Z,6.24
2018-12-24T05:24:19.669Z,6.28
2018-12-24T05:25:19.630Z,6.28
2018-12-24T05:26:19.605Z,6.13
2018-12-24T05:27:19.593Z,6.18
2018-12-24T05:28:19.631Z,6.21
2018-12-24T05:29:19.579Z,6.12
2018-12-24T05:30:19.565Z,6.25
2018-12-24T05:31:19.547Z,6.24
2018-12-24T05:32:19.538Z,6.18
2018-12-24T05:33:19.572Z,6.18
2018-12-24T05:34:19.516Z,6.19
2018-12-24T05:35:19.513Z,6.16
2018-12-24T05:36:19.538Z,6.16
2018-12-24T05:37:19.501Z,6.27
2018-12-24T05:38:19.513Z,6.19
2018-12-24T05:39:19.525Z,6.13
2018-12-24T05:40:19.498Z,6.24
2018-12-24T05:41:19.442Z,6.19
2018-12-24T05:42:19.431Z,6.21
2018-12-24T05:43:19.473Z,6.27
2018-12-24T05:44:19.419Z,6.12
2018-12-24T05:45:19.412Z,6.24
2018-12-24T05:46:19.386Z,6.15
2018-12-24T05:47:19.384Z,6.18
2018-12-24T05:48:19.376Z,6.15
2018-12-24T05:49:19.413Z,6.15
2018-12-24T05:50:19.354Z,6.18
2018-12-24T05:51:19.334Z,6.19
2018-12-24T05:52:19.391Z,6.19
2018-12-24T05:53:19.312Z,6.15
2018-12-24T05:54:19.301Z,6.18
2018-12-24T05:55:19.291Z,6.18
2018-12-24T05:56:19.322Z,6.15
2018-12-24T05:57:19.284Z,6.15
2018-12-24T05:58:19.258Z,6.18
2018-12-24T05:59:19.249Z,6.16
2018-12-24T06:00:19.238Z,6.18
2018-12-24T06:01:19.516Z,6.12
2018-12-24T06:02:19.220Z,6.18
2018-12-24T06:03:19.249Z,6.15
2018-12-24T06:04:19.201Z,6.24
2018-12-24T06:05:19.187Z,6.19
2018-12-24T06:06:19.180Z,6.09
2018-12-24T06:07:19.204Z,6.18
2018-12-24T06:08:19.153Z,6.27
2018-12-24T06:09:19.149Z,6.21
2018-12-24T06:10:19.150Z,6.24
2018-12-24T06:11:19.122Z,6.24
2018-12-24T06:12:19.120Z,6.19
2018-12-24T06:13:19.158Z,6.19
2018-12-24T06:14:19.087Z,6.16
2018-12-24T06:15:19.076Z,6.16
2018-12-24T06:16:19.082Z,6.15
2018-12-24T06:17:19.060Z,6.27
2018-12-24T06:18:19.087Z,6.21
2018-12-24T06:19:19.037Z,6.12
2018-12-24T06:20:19.026Z,6.18
2018-12-24T06:21:19.017Z,6.12
2018-12-24T06:22:19.018Z,6.24
2018-12-24T06:23:19.038Z,6.27
2018-12-24T06:24:18.980Z,6.13
2018-12-24T06:25:18.970Z,6.18
2018-12-24T06:26:18.968Z,6.24
2018-12-24T06:27:18.951Z,6.21
2018-12-24T06:28:18.989Z,6.21
2018-12-24T06:29:18.930Z,6.21
2018-12-24T06:30:18.918Z,6.19
2018-12-24T06:31:18.914Z,6.15
2018-12-24T06:32:19.019Z,6.16
2018-12-24T06:33:18.905Z,6.24
2018-12-24T06:34:18.923Z,6.28
2018-12-24T06:35:18.873Z,6.18
2018-12-24T06:36:18.849Z,6.21
2018-12-24T06:37:18.836Z,6.28
2018-12-24T06:38:18.837Z,6.32
2018-12-24T06:39:18.830Z,6.25
2018-12-24T06:40:18.859Z,6.24
2018-12-24T06:41:18.796Z,6.24
2018-12-24T06:42:18.791Z,6.30
2018-12-24T06:43:18.794Z,6.28
2018-12-24T06:44:18.764Z,6.31
2018-12-24T06:45:18.751Z,6.35
2018-12-24T06:46:18.783Z,6.27
2018-12-24T06:47:18.781Z,6.30
2018-12-24T06:48:18.717Z,6.31
2018-12-24T06:49:18.738Z,6.21
2018-12-24T06:50:18.729Z,6.32
2018-12-24T06:51:18.696Z,6.31
2018-12-24T06:52:18.674Z,6.34
2018-12-24T06:53:18.708Z,6.37
2018-12-24T06:54:18.663Z,6.31
2018-12-24T06:55:18.934Z,6.35
2018-12-24T06:56:18.642Z,6.28
2018-12-24T06:57:18.693Z,6.35
2018-12-24T06:58:18.616Z,6.38
2018-12-24T06:59:18.602Z,6.38
2018-12-24T07:00:18.595Z,6.35
2018-12-24T07:01:18.856Z,6.45
2018-12-24T07:02:18.572Z,6.38
2018-12-24T07:03:18.560Z,6.37
2018-12-24T07:04:18.587Z,6.40
2018-12-24T07:05:18.541Z,6.37
2018-12-24T07:06:18.524Z,6.35
2018-12-24T07:07:18.684Z,6.34
2018-12-24T07:08:18.504Z,6.32
2018-12-24T07:09:18.494Z,6.35
2018-12-24T07:10:18.500Z,6.40
2018-12-24T07:11:18.507Z,6.35
2018-12-24T07:12:18.460Z,6.46
2018-12-24T07:13:18.490Z,6.45
2018-12-24T07:14:18.437Z,6.40
2018-12-24T07:15:18.432Z,6.32
2018-12-24T07:16:18.461Z,6.34
2018-12-24T07:17:18.464Z,6.47
2018-12-24T07:18:18.404Z,6.31
2018-12-24T07:19:18.392Z,6.34
2018-12-24T07:20:18.415Z,6.37
2018-12-24T07:21:18.366Z,6.45
2018-12-24T07:22:18.356Z,6.37
2018-12-24T07:23:18.379Z,6.40
2018-12-24T07:24:18.336Z,6.47
2018-12-24T07:25:18.339Z,6.42
2018-12-24T07:26:18.310Z,6.38
2018-12-24T07:27:18.311Z,6.40
2018-12-24T07:28:18.286Z,6.45
2018-12-24T07:29:18.339Z,6.49
2018-12-24T07:30:18.307Z,6.38
2018-12-24T07:31:18.266Z,6.46
2018-12-24T07:32:18.258Z,6.35
2018-12-24T07:33:18.257Z,6.35
2018-12-24T07:34:18.228Z,6.45
2018-12-24T07:35:18.210Z,6.46
2018-12-24T07:36:18.243Z,6.45
2018-12-24T07:37:18.221Z,6.42
2018-12-24T07:38:18.238Z,6.34
2018-12-24T07:39:18.169Z,6.38
2018-12-24T07:40:18.157Z,6.38
2018-12-24T07:41:18.158Z,6.38
2018-12-24T07:42:18.180Z,6.45
2018-12-24T07:43:18.125Z,6.43
2018-12-24T07:44:24.085Z,6.42
2018-12-24T07:45:19.105Z,6.42
2018-12-24T07:46:18.137Z,6.46
2018-12-24T07:47:18.100Z,6.46
2018-12-24T07:48:18.118Z,6.38
2018-12-24T07:49:18.061Z,6.52
2018-12-24T07:50:18.099Z,6.46
2018-12-24T07:51:18.048Z,6.43
2018-12-24T07:52:18.027Z,6.50
2018-12-24T07:53:18.014Z,6.52
2018-12-24T07:54:18.019Z,6.38
2018-12-24T07:55:17.992Z,6.45
2018-12-24T07:56:18.023Z,6.45
2018-12-24T07:57:18.023Z,6.45
2018-12-24T07:58:17.960Z,6.38
2018-12-24T07:59:17.954Z,6.42
2018-12-24T08:00:17.954Z,6.45
2018-12-24T08:01:17.945Z,6.50
2018-12-24T08:02:17.918Z,6.45
2018-12-24T08:03:17.958Z,6.45
2018-12-24T08:04:17.907Z,6.40
2018-12-24T08:05:17.936Z,6.45
2018-12-24T08:06:17.872Z,6.46
2018-12-24T08:07:17.863Z,6.46
2018-12-24T08:08:17.873Z,6.45
2018-12-24T08:09:17.840Z,6.45
2018-12-24T08:10:17.835Z,6.45
2018-12-24T08:11:17.867Z,6.46
2018-12-24T08:12:17.811Z,6.38
2018-12-24T08:13:17.838Z,6.46
2018-12-24T08:14:17.799Z,6.45
2018-12-24T08:15:17.776Z,6.47
2018-12-24T08:16:17.767Z,6.38
2018-12-24T08:17:17.764Z,6.50
2018-12-24T08:18:17.802Z,6.46
2018-12-24T08:19:17.785Z,6.57
2018-12-24T08:20:17.783Z,6.53
2018-12-24T08:21:18.014Z,6.61
2018-12-24T08:22:17.723Z,6.52
2018-12-24T08:23:17.712Z,6.55
2018-12-24T08:24:17.716Z,6.49
2018-12-24T08:25:17.664Z,6.53
2018-12-24T08:26:17.668Z,6.47
2018-12-24T08:27:17.729Z,6.50
2018-12-24T08:28:17.696Z,6.55
2018-12-24T08:29:17.625Z,6.43
2018-12-24T08:30:17.622Z,6.50
2018-12-24T08:31:17.602Z,6.60
2018-12-24T08:32:17.602Z,6.57
2018-12-24T08:33:17.582Z,6.49
2018-12-24T08:34:17.629Z,6.49
2018-12-24T08:35:17.579Z,6.56
2018-12-24T08:36:17.553Z,6.49
2018-12-24T08:37:17.538Z,6.52
2018-12-24T08:38:17.547Z,6.61
2018-12-24T08:39:17.513Z,6.63
2018-12-24T08:40:17.574Z,6.60
2018-12-24T08:41:17.500Z,6.64
2018-12-24T08:42:17.549Z,6.63
2018-12-24T08:43:17.482Z,6.67
2018-12-24T08:44:17.460Z,6.65
2018-12-24T08:45:17.450Z,6.65
2018-12-24T08:46:17.506Z,6.64
2018-12-24T08:47:17.438Z,6.67
2018-12-24T08:48:17.415Z,6.63
2018-12-24T08:49:17.418Z,6.57
2018-12-24T08:50:17.400Z,6.63
2018-12-24T08:51:17.385Z,6.64
2018-12-24T08:52:17.465Z,6.65
2018-12-24T08:53:17.368Z,6.61
2018-12-24T08:54:17.363Z,6.57
2018-12-24T08:55:17.365Z,6.61
2018-12-24T08:56:17.350Z,6.61
2018-12-24T08:57:17.322Z,6.61
2018-12-24T08:58:17.384Z,6.61
2018-12-24T08:59:17.299Z,6.57
2018-12-24T09:00:17.294Z,6.65
2018-12-24T09:01:17.282Z,6.64
2018-12-24T09:02:17.270Z,6.61
2018-12-24T09:03:17.255Z,6.64
2018-12-24T09:04:17.339Z,6.56
2018-12-24T09:05:17.231Z,6.68
2018-12-24T09:06:17.223Z,6.61
2018-12-24T09:07:17.209Z,6.60
2018-12-24T09:08:17.203Z,6.61
2018-12-24T09:09:18.956Z,6.65
2018-12-24T09:10:17.288Z,6.50
2018-12-24T09:11:17.171Z,6.46
2018-12-24T09:12:17.155Z,6.60
2018-12-24T09:13:17.145Z,6.47
2018-12-24T09:14:17.140Z,6.49
2018-12-24T09:15:17.149Z,6.61
2018-12-24T09:16:17.173Z,6.61
2018-12-24T09:17:17.112Z,6.67
2018-12-24T09:18:17.152Z,6.56
2018-12-24T09:19:17.141Z,6.57
2018-12-24T09:20:17.069Z,6.63
2018-12-24T09:21:17.060Z,6.61
2018-12-24T09:22:17.044Z,6.61
2018-12-24T09:23:17.060Z,6.64
2018-12-24T09:24:17.055Z,6.63
2018-12-24T09:25:17.121Z,6.64
2018-12-24T09:26:17.075Z,6.63
2018-12-24T09:27:16.991Z,6.64
2018-12-24T09:28:16.982Z,6.67
2018-12-24T09:29:16.983Z,6.64
2018-12-24T09:30:16.958Z,6.63
2018-12-24T09:31:17.014Z,6.61
2018-12-24T09:32:16.972Z,6.71
2018-12-24T09:33:16.931Z,6.73
2018-12-24T09:34:16.918Z,6.75
2018-12-24T09:35:16.920Z,6.75
2018-12-24T09:36:16.963Z,6.70
2018-12-24T09:37:16.886Z,6.63
2018-12-24T09:38:16.873Z,6.70
2018-12-24T09:39:16.875Z,6.78
2018-12-24T09:40:16.875Z,6.82
2018-12-24T09:41:16.849Z,6.82
2018-12-24T09:42:16.907Z,6.81
2018-12-24T09:43:16.817Z,6.78
2018-12-24T09:44:16.805Z,6.81
2018-12-24T09:45:16.801Z,6.78
2018-12-24T09:46:16.783Z,6.82
2018-12-24T09:47:16.781Z,6.74
2018-12-24T09:48:17.051Z,6.82
2018-12-24T09:49:16.759Z,6.82
2018-12-24T09:50:16.738Z,6.83
2018-12-24T09:51:16.729Z,6.81
2018-12-24T09:52:16.720Z,6.78
2018-12-24T09:53:16.706Z,6.88
2018-12-24T09:54:16.756Z,6.78
2018-12-24T09:55:16.756Z,6.83
2018-12-24T09:56:16.680Z,6.85
2018-12-24T09:57:16.670Z,6.81
2018-12-24T09:58:16.680Z,6.74
2018-12-24T09:59:16.643Z,6.81
2018-12-24T10:00:16.637Z,6.82
2018-12-24T10:01:16.697Z,6.81
2018-12-24T10:02:16.616Z,6.83
2018-12-24T10:03:16.607Z,6.79
2018-12-24T10:04:16.588Z,6.79
2018-12-24T10:05:16.578Z,6.86
2018-12-24T10:06:16.566Z,6.83
2018-12-24T10:07:16.616Z,6.79
2018-12-24T10:08:16.557Z,6.85
2018-12-24T10:09:16.549Z,6.81
2018-12-24T10:10:16.522Z,6.83
2018-12-24T10:11:16.578Z,6.79
2018-12-24T10:12:16.507Z,6.85
2018-12-24T10:13:16.492Z,6.83
2018-12-24T10:14:16.486Z,6.74
2018-12-24T10:15:16.477Z,6.74
2018-12-24T10:16:16.727Z,6.64
2018-12-24T10:17:16.451Z,6.64
2018-12-24T10:18:16.451Z,6.68
2018-12-24T10:19:16.427Z,6.74
2018-12-24T10:20:16.424Z,6.81
2018-12-24T10:21:16.481Z,6.86
2018-12-24T10:22:16.399Z,6.85
2018-12-24T10:23:16.381Z,6.85
2018-12-24T10:24:16.368Z,6.91
2018-12-24T10:25:16.362Z,6.83
2018-12-24T10:26:16.352Z,6.88
2018-12-24T10:27:16.407Z,6.88
2018-12-24T10:28:16.324Z,6.89
2018-12-24T10:29:16.313Z,6.86
2018-12-24T10:30:16.307Z,6.81
2018-12-24T10:31:16.322Z,6.79
2018-12-24T10:32:16.284Z,6.78
2018-12-24T10:33:16.351Z,6.89
2018-12-24T10:34:16.270Z,6.86
2018-12-24T10:35:16.264Z,6.85
2018-12-24T10:36:16.238Z,6.78
2018-12-24T10:37:16.224Z,6.83
2018-12-24T10:38:16.286Z,6.79
2018-12-24T10:39:16.216Z,6.83
2018-12-24T10:40:16.226Z,6.82
2018-12-24T10:41:16.183Z,6.81
2018-12-24T10:42:16.172Z,6.83
2018-12-24T10:43:16.171Z,6.83
2018-12-24T10:44:16.247Z,6.79
2018-12-24T10:45:16.807Z,6.73
2018-12-24T10:46:16.169Z,6.82
2018-12-24T10:47:16.123Z,6.71
2018-12-24T10:48:16.109Z,6.70
2018-12-24T10:49:16.101Z,6.64
2018-12-24T10:50:16.125Z,6.64
2018-12-24T10:51:16.119Z,6.71
2018-12-24T10:52:16.077Z,6.64
2018-12-24T10:53:16.049Z,6.64
2018-12-24T10:54:16.045Z,6.68
2018-12-24T10:55:16.081Z,6.63
2018-12-24T10:56:16.069Z,6.68
2018-12-24T10:57:16.013Z,6.70
2018-12-24T10:58:15.997Z,6.70
2018-12-24T10:59:16.140Z,6.74
2018-12-24T11:00:15.974Z,6.82
2018-12-24T11:01:15.966Z,6.86
2018-12-24T11:02:16.017Z,6.91
2018-12-24T11:03:15.948Z,6.83
2018-12-24T11:04:15.938Z,6.88
2018-12-24T11:05:15.922Z,6.85
2018-12-24T11:06:15.915Z,6.93
2018-12-24T11:07:15.909Z,6.99
2018-12-24T11:08:15.948Z,6.97
2018-12-24T11:09:15.885Z,6.96
2018-12-24T11:10:15.870Z,7.01
2018-12-24T11:11:15.858Z,6.99
2018-12-24T11:12:15.912Z,7.07
2018-12-24T11:13:15.848Z,7.03
2018-12-24T11:14:15.848Z,7.03
2018-12-24T11:15:15.816Z,7.03
2018-12-24T11:16:15.804Z,7.06
2018-12-24T11:17:15.791Z,7.10
2018-12-24T11:18:15.853Z,7.10
2018-12-24T11:19:15.766Z,7.21
2018-12-24T11:20:15.760Z,7.15
2018-12-24T11:21:15.746Z,7.15
2018-12-24T11:22:15.757Z,7.15
2018-12-24T11:23:15.780Z,7.18
2018-12-24T11:24:15.721Z,7.16
2018-12-24T11:25:15.705Z,7.16
2018-12-24T11:26:15.693Z,7.18
2018-12-24T11:27:15.680Z,7.06
2018-12-24T11:28:15.718Z,7.13
2018-12-24T11:29:15.688Z,7.08
2018-12-24T11:30:15.648Z,7.07
2018-12-24T11:31:15.638Z,7.00
2018-12-24T11:32:15.636Z,7.06
2018-12-24T11:33:15.661Z,6.81
2018-12-24T11:34:15.619Z,6.91
2018-12-24T11:35:15.594Z,6.86
2018-12-24T11:36:15.588Z,6.91
2018-12-24T11:37:15.580Z,6.89
2018-12-24T11:38:15.561Z,6.74
2018-12-24T11:39:15.611Z,6.75
2018-12-24T11:40:15.535Z,6.82
2018-12-24T11:41:15.537Z,6.79
2018-12-24T11:42:15.524Z,6.83
2018-12-24T11:43:15.504Z,6.78
2018-12-24T11:44:15.554Z,6.74
2018-12-24T11:45:15.481Z,6.75
2018-12-24T11:46:15.473Z,6.68
2018-12-24T11:47:15.460Z,6.63
2018-12-24T11:48:15.455Z,6.49
2018-12-24T11:49:15.443Z,6.49
2018-12-24T11:50:15.723Z,6.49
2018-12-24T11:51:15.422Z,6.46
2018-12-24T11:52:15.405Z,6.61
2018-12-24T11:53:15.391Z,6.61
2018-12-24T11:54:15.382Z,6.49
2018-12-24T11:55:15.371Z,6.64
2018-12-24T11:56:15.413Z,6.50
2018-12-24T11:57:15.407Z,6.52
2018-12-24T11:58:16.749Z,6.55
2018-12-24T11:59:15.333Z,6.64
2018-12-24T12:00:15.321Z,6.63
2018-12-24T12:01:15.307Z,6.75
2018-12-24T12:02:15.296Z,6.57
2018-12-24T12:03:15.398Z,6.71
2018-12-24T12:04:15.357Z,6.82
2018-12-24T12:05:15.264Z,6.81
2018-12-24T12:06:19.708Z,6.86
2018-12-24T12:07:15.238Z,6.82
2018-12-24T12:08:15.232Z,6.81
2018-12-24T12:09:15.270Z,6.86
2018-12-24T12:10:15.207Z,6.79
2018-12-24T12:11:15.208Z,6.78
2018-12-24T12:12:15.199Z,6.83
2018-12-24T12:13:15.217Z,6.82
2018-12-24T12:14:15.167Z,6.83
2018-12-24T12:15:15.158Z,6.82
2018-12-24T12:16:15.146Z,6.78
2018-12-24T12:17:15.160Z,6.92
2018-12-24T12:18:15.122Z,6.92
2018-12-24T12:19:15.163Z,6.88
2018-12-24T12:20:15.097Z,6.83
2018-12-24T12:21:15.097Z,6.81
2018-12-24T12:22:15.126Z,6.86
2018-12-24T12:23:15.080Z,6.85
2018-12-24T12:24:15.061Z,6.89
2018-12-24T12:25:15.046Z,7.07
2018-12-24T12:26:15.044Z,6.89
2018-12-24T12:27:15.064Z,6.99
2018-12-24T12:28:17.143Z,7.01
2018-12-24T12:29:14.999Z,7.04
2018-12-24T12:30:14.987Z,7.04
2018-12-24T12:31:14.988Z,7.00
2018-12-24T12:32:14.978Z,7.07
2018-12-24T12:33:15.194Z,7.00
2018-12-24T12:34:14.945Z,6.93
2018-12-24T12:35:14.943Z,6.92
2018-12-24T12:36:15.119Z,7.01
2018-12-24T12:37:14.915Z,7.01
2018-12-24T12:38:14.917Z,6.97
2018-12-24T12:39:14.936Z,7.07
2018-12-24T12:40:14.892Z,7.10
2018-12-24T12:41:14.872Z,7.18
2018-12-24T12:42:14.865Z,7.18
2018-12-24T12:43:15.518Z,7.26
2018-12-24T12:44:14.837Z,7.22
2018-12-24T12:45:14.829Z,7.33
2018-12-24T12:46:14.837Z,7.43
2018-12-24T12:47:14.821Z,7.40
2018-12-24T12:48:14.797Z,7.43
2018-12-24T12:49:15.056Z,7.60
2018-12-24T12:50:14.772Z,7.68
2018-12-24T12:51:14.761Z,7.78
2018-12-24T12:52:14.748Z,7.74
2018-12-24T12:53:14.740Z,7.71
2018-12-24T12:54:14.741Z,7.68
2018-12-24T12:55:14.763Z,7.62
2018-12-24T12:56:14.711Z,7.54
2018-12-24T12:57:14.703Z,7.44
2018-12-24T12:58:14.682Z,7.28
2018-12-24T12:59:14.719Z,7.21
2018-12-24T13:00:14.705Z,7.10
2018-12-24T13:01:14.656Z,7.10
2018-12-24T13:02:14.643Z,7.04
2018-12-24T13:03:14.626Z,7.01
2018-12-24T13:04:14.645Z,6.92
2018-12-24T13:05:14.605Z,7.00
2018-12-24T13:06:14.642Z,7.13
2018-12-24T13:07:14.584Z,7.16
2018-12-24T13:08:14.575Z,7.11
2018-12-24T13:09:14.605Z,7.15
2018-12-24T13:10:14.551Z,7.15
2018-12-24T13:11:14.584Z,7.18
2018-12-24T13:12:14.527Z,7.15
2018-12-24T13:13:14.521Z,7.15
2018-12-24T13:14:14.503Z,7.15
2018-12-24T13:15:14.505Z,7.15
2018-12-24T13:16:14.490Z,7.18
2018-12-24T13:17:14.531Z,7.29
2018-12-24T13:18:14.464Z,7.28